Time;durP1;ratioP1;P1;durP2;ratioP2;P2;SDS_P1;SDS_P2;PMS_P1;PMS_P2;Temp;Humidity;BMP_temperature;BMP_pressure;BME280_temperature;BME280_humidity;BME280_pressure;Samples;Min_cycle;Max_cycle;Signal;HPM_P1;HPM_P2
2023/10/24 00:01:13;;;;;;;56.70;2.80;;;;;;;;;;5052848;28;20478;-72
2023/10/24 00:03:40;;;;;;;56.07;2.10;;;;;;;;;;5052892;28;20451;-72
2023/10/24 00:06:07;;;;;;;56.10;2.50;;;;;;;;;;5052970;28;20451;-72
2023/10/24 00:08:36;;;;;;;57.50;2.60;;;;;;;;;;5052748;28;20554;-72
2023/10/24 00:11:03;;;;;;;56.07;2.20;;;;;;;;;;5052759;28;20452;-72
2023/10/24 00:13:31;;;;;;;56.27;2.70;;;;;;;;;;5052474;28;20523;-72
2023/10/24 00:15:58;;;;;;;55.90;2.20;;;;;;;;;;5052580;28;20462;-72
2023/10/24 00:18:25;;;;;;;55.87;2.20;;;;;;;;;;5052460;28;20460;-72
2023/10/24 00:20:52;;;;;;;57.27;2.40;;;;;;;;;;5052308;28;20480;-72
2023/10/24 00:23:20;;;;;;;56.03;2.30;;;;;;;;;;5052693;28;20735;-72
2023/10/24 00:25:48;;;;;;;56.03;2.20;;;;;;;;;;5052630;28;20441;-72
2023/10/24 00:28:15;;;;;;;57.53;2.27;;;;;;;;;;5052307;28;20484;-72
2023/10/24 00:30:42;;;;;;;56.30;2.77;;;;;;;;;;5052156;28;20460;-72
2023/10/24 00:33:09;;;;;;;56.20;2.60;;;;;;;;;;5052364;28;20483;-72
2023/10/24 00:35:36;;;;;;;56.27;2.77;;;;;;;;;;5052303;28;20451;-73
2023/10/24 00:38:04;;;;;;;56.50;2.50;;;;;;;;;;5052369;28;20959;-73
2023/10/24 00:40:33;;;;;;;56.17;2.97;;;;;;;;;;5051921;28;20476;-72
2023/10/24 00:43:04;;;;;;;55.87;2.30;;;;;;;;;;5052113;28;20504;-72
2023/10/24 00:45:32;;;;;;;55.93;2.20;;;;;;;;;;5052182;28;20446;-72
2023/10/24 00:47:59;;;;;;;56.23;2.70;;;;;;;;;;5052184;28;20962;-72
2023/10/24 00:50:26;;;;;;;56.97;3.60;;;;;;;;;;5051866;28;20464;-72
2023/10/24 00:52:53;;;;;;;56.53;2.50;;;;;;;;;;5052048;28;20452;-73
2023/10/24 00:55:22;;;;;;;57.73;3.43;;;;;;;;;;5051584;28;20440;-72
2023/10/24 00:57:49;;;;;;;56.50;3.03;;;;;;;;;;5052055;28;20444;-72
2023/10/24 01:00:18;;;;;;;56.30;2.80;;;;;;;;;;5051810;28;20470;-72
2023/10/24 01:02:45;;;;;;;56.20;2.30;;;;;;;;;;5051637;28;20447;-73
2023/10/24 01:05:12;;;;;;;56.00;2.43;;;;;;;;;;5051654;28;20817;-72
2023/10/24 01:07:39;;;;;;;55.87;2.10;;;;;;;;;;5051479;28;20461;-72
2023/10/24 01:10:07;;;;;;;56.00;2.77;;;;;;;;;;5050883;28;20476;-72
2023/10/24 01:12:34;;;;;;;56.30;2.53;;;;;;;;;;5051670;28;20452;-72
2023/10/24 01:15:03;;;;;;;56.50;2.40;;;;;;;;;;5051502;28;20936;-72
2023/10/24 01:17:32;;;;;;;56.07;2.40;;;;;;;;;;5051555;28;20892;-72
2023/10/24 01:19:59;;;;;;;56.30;2.50;;;;;;;;;;5051201;28;20984;-72
2023/10/24 01:22:28;;;;;;;56.50;2.97;;;;;;;;;;5051325;28;20445;-72
2023/10/24 01:24:55;;;;;;;56.40;2.87;;;;;;;;;;5050675;28;20452;-72
2023/10/24 01:27:24;;;;;;;56.30;2.80;;;;;;;;;;5051359;28;20453;-72
2023/10/24 01:29:51;;;;;;;56.40;2.33;;;;;;;;;;5050925;28;20993;-72
2023/10/24 01:32:18;;;;;;;56.50;2.80;;;;;;;;;;5051489;28;20449;-72
2023/10/24 01:34:46;;;;;;;55.97;2.10;;;;;;;;;;5051164;28;20457;-72
2023/10/24 01:37:13;;;;;;;56.00;2.40;;;;;;;;;;5051031;28;20938;-72
2023/10/24 01:39:41;;;;;;;56.20;2.50;;;;;;;;;;5050995;28;20835;-72
2023/10/24 01:42:08;;;;;;;56.43;2.80;;;;;;;;;;5050975;28;20445;-72
2023/10/24 01:44:35;;;;;;;57.23;2.60;;;;;;;;;;5050912;28;20554;-72
2023/10/24 01:47:02;;;;;;;56.00;2.20;;;;;;;;;;5051195;28;20448;-72
2023/10/24 01:49:30;;;;;;;56.03;2.30;;;;;;;;;;5050929;28;20853;-73
2023/10/24 01:51:57;;;;;;;56.03;2.27;;;;;;;;;;5051295;28;20457;-72
2023/10/24 01:54:24;;;;;;;56.30;2.63;;;;;;;;;;5051236;28;20445;-72
2023/10/24 01:56:52;;;;;;;56.30;2.50;;;;;;;;;;5050784;28;20451;-72
2023/10/24 01:59:19;;;;;;;55.80;2.30;;;;;;;;;;5051020;28;20464;-72
2023/10/24 02:01:46;;;;;;;56.30;3.00;;;;;;;;;;5050616;28;20452;-72
2023/10/24 02:04:13;;;;;;;56.10;2.13;;;;;;;;;;5050690;28;20510;-72
2023/10/24 02:06:40;;;;;;;56.30;2.80;;;;;;;;;;5050600;28;20440;-72
2023/10/24 02:09:07;;;;;;;57.73;2.90;;;;;;;;;;5050662;28;21033;-72
2023/10/24 02:11:34;;;;;;;55.87;2.23;;;;;;;;;;5050575;28;20828;-72
2023/10/24 02:14:03;;;;;;;55.97;2.40;;;;;;;;;;5050727;28;20452;-72
2023/10/24 02:16:30;;;;;;;55.67;2.10;;;;;;;;;;5050574;28;20479;-72
2023/10/24 02:18:57;;;;;;;56.20;2.77;;;;;;;;;;5051244;28;20551;-72
2023/10/24 02:21:24;;;;;;;56.07;2.40;;;;;;;;;;5053126;28;20448;-72
2023/10/24 02:23:52;;;;;;;56.87;2.67;;;;;;;;;;5046383;28;20448;-73
2023/10/24 02:26:19;;;;;;;56.40;2.43;;;;;;;;;;5054900;28;20456;-73
2023/10/24 02:28:46;;;;;;;56.00;2.50;;;;;;;;;;5054758;28;20489;-73
2023/10/24 02:31:14;;;;;;;55.97;2.60;;;;;;;;;;5054643;28;20452;-73
2023/10/24 02:33:41;;;;;;;55.83;2.00;;;;;;;;;;5054456;28;20496;-70
2023/10/24 02:36:09;;;;;;;56.00;2.40;;;;;;;;;;5054340;28;20442;-71
2023/10/24 02:38:36;;;;;;;55.87;2.53;;;;;;;;;;5054274;28;20440;-71
2023/10/24 02:41:03;;;;;;;56.07;2.33;;;;;;;;;;5054576;28;20828;-71
2023/10/24 02:43:30;;;;;;;56.03;2.30;;;;;;;;;;5054123;28;20999;-71
2023/10/24 02:46:02;;;;;;;56.57;2.83;;;;;;;;;;5054514;28;20452;-71
2023/10/24 02:48:31;;;;;;;56.20;2.30;;;;;;;;;;5054134;28;20494;-71
2023/10/24 02:50:58;;;;;;;56.10;2.20;;;;;;;;;;5053831;28;20469;-71
2023/10/24 02:53:26;;;;;;;56.00;2.27;;;;;;;;;;5054330;28;20862;-73
2023/10/24 02:55:53;;;;;;;56.17;2.50;;;;;;;;;;5054170;28;20477;-71
2023/10/24 02:58:20;;;;;;;56.50;3.10;;;;;;;;;;5054424;28;20438;-71
2023/10/24 03:00:48;;;;;;;56.03;2.30;;;;;;;;;;5053750;28;20484;-71
2023/10/24 03:03:15;;;;;;;56.07;2.10;;;;;;;;;;5054030;28;20467;-71
2023/10/24 03:05:43;;;;;;;56.30;2.50;;;;;;;;;;5053784;28;20454;-71
2023/10/24 03:08:10;;;;;;;55.80;2.23;;;;;;;;;;5054084;28;20447;-71
2023/10/24 03:10:41;;;;;;;56.00;2.27;;;;;;;;;;5053796;28;21006;-71
2023/10/24 03:13:08;;;;;;;56.10;2.70;;;;;;;;;;5053814;28;20455;-71
2023/10/24 03:15:35;;;;;;;56.00;2.40;;;;;;;;;;5053692;28;20450;-71
2023/10/24 03:18:03;;;;;;;59.50;2.77;;;;;;;;;;5053724;28;20514;-71
2023/10/24 03:20:30;;;;;;;56.77;3.17;;;;;;;;;;5053461;28;20565;-71
2023/10/24 03:22:58;;;;;;;55.90;2.27;;;;;;;;;;5053715;28;20457;-71
2023/10/24 03:25:26;;;;;;;56.33;2.57;;;;;;;;;;5053614;28;20445;-71
2023/10/24 03:27:54;;;;;;;56.10;2.30;;;;;;;;;;5053584;28;20469;-71
2023/10/24 03:30:21;;;;;;;56.10;2.40;;;;;;;;;;5053336;28;20600;-71
2023/10/24 03:32:48;;;;;;;56.03;2.30;;;;;;;;;;5053131;28;20467;-71
2023/10/24 03:35:15;;;;;;;55.83;2.53;;;;;;;;;;5053497;28;20444;-71
2023/10/24 03:37:42;;;;;;;55.83;2.13;;;;;;;;;;5053598;28;20449;-71
2023/10/24 03:40:11;;;;;;;56.30;2.50;;;;;;;;;;5053216;28;20474;-72
2023/10/24 03:42:38;;;;;;;56.67;2.93;;;;;;;;;;5053198;28;20949;-72
2023/10/24 03:45:06;;;;;;;56.20;2.60;;;;;;;;;;5053030;28;20446;-72
2023/10/24 03:47:33;;;;;;;55.87;2.70;;;;;;;;;;5053350;28;20450;-72
2023/10/24 03:50:00;;;;;;;56.10;2.30;;;;;;;;;;5053044;28;20497;-72
2023/10/24 03:52:27;;;;;;;56.03;2.37;;;;;;;;;;5053346;28;20445;-72
2023/10/24 03:54:54;;;;;;;56.10;2.60;;;;;;;;;;5052959;28;20453;-72
2023/10/24 03:57:23;;;;;;;56.07;2.23;;;;;;;;;;5053042;28;20447;-72
2023/10/24 03:59:50;;;;;;;56.20;2.40;;;;;;;;;;5052685;28;20464;-72
2023/10/24 04:02:17;;;;;;;56.00;2.50;;;;;;;;;;5052999;28;20828;-72
2023/10/24 04:04:44;;;;;;;57.03;2.87;;;;;;;;;;5052892;28;20456;-71
2023/10/24 04:07:11;;;;;;;55.67;2.20;;;;;;;;;;5052972;28;20446;-72
2023/10/24 04:09:38;;;;;;;56.30;2.90;;;;;;;;;;5052804;28;20792;-72
2023/10/24 04:12:05;;;;;;;55.97;2.60;;;;;;;;;;5053367;28;20440;-72
2023/10/24 04:14:33;;;;;;;56.17;2.40;;;;;;;;;;5052487;28;20453;-72
2023/10/24 04:17:00;;;;;;;56.07;2.60;;;;;;;;;;5053004;28;20447;-72
2023/10/24 04:19:27;;;;;;;56.40;2.40;;;;;;;;;;5052734;28;20463;-71
2023/10/24 04:21:54;;;;;;;55.87;2.40;;;;;;;;;;5052890;28;20447;-72
2023/10/24 04:24:21;;;;;;;56.70;2.90;;;;;;;;;;5052413;28;20448;-72
2023/10/24 04:26:48;;;;;;;56.07;2.67;;;;;;;;;;5052561;28;20445;-72
2023/10/24 04:29:16;;;;;;;56.00;2.60;;;;;;;;;;5052916;28;20501;-72
2023/10/24 04:31:44;;;;;;;56.00;2.30;;;;;;;;;;5052454;28;20656;-72
2023/10/24 04:34:11;;;;;;;55.87;2.00;;;;;;;;;;5052507;28;20451;-72
2023/10/24 04:36:39;;;;;;;56.57;2.40;;;;;;;;;;5052545;28;20447;-72
2023/10/24 04:39:06;;;;;;;55.80;2.20;;;;;;;;;;5052317;28;20468;-72
2023/10/24 04:41:33;;;;;;;56.03;2.60;;;;;;;;;;5052052;28;20463;-72
2023/10/24 04:44:00;;;;;;;55.97;2.40;;;;;;;;;;5051131;28;20456;-72
2023/10/24 04:46:27;;;;;;;55.90;2.20;;;;;;;;;;5052384;28;20450;-72
2023/10/24 04:48:56;;;;;;;57.13;2.87;;;;;;;;;;5051940;28;20855;-72
2023/10/24 04:51:23;;;;;;;55.90;2.00;;;;;;;;;;5051916;28;20460;-72
2023/10/24 04:53:50;;;;;;;56.07;2.23;;;;;;;;;;5051948;28;20450;-72
2023/10/24 04:56:18;;;;;;;56.07;2.40;;;;;;;;;;5052346;28;20473;-72
2023/10/24 04:58:45;;;;;;;56.10;2.50;;;;;;;;;;5051833;28;20469;-72
2023/10/24 05:01:13;;;;;;;55.70;2.20;;;;;;;;;;5051549;28;20938;-72
2023/10/24 05:03:40;;;;;;;55.90;2.40;;;;;;;;;;5051417;28;20458;-72
2023/10/24 05:06:08;;;;;;;55.93;2.40;;;;;;;;;;5051696;28;20450;-72
2023/10/24 05:08:35;;;;;;;56.17;2.23;;;;;;;;;;5051450;28;20455;-72
2023/10/24 05:11:02;;;;;;;56.20;2.20;;;;;;;;;;5051695;28;20493;-72
2023/10/24 05:13:29;;;;;;;55.93;2.37;;;;;;;;;;5051689;28;20456;-72
2023/10/24 05:15:57;;;;;;;55.57;2.20;;;;;;;;;;5051577;28;20452;-72
2023/10/24 05:18:24;;;;;;;56.70;2.53;;;;;;;;;;5051313;28;20455;-72
2023/10/24 05:20:51;;;;;;;55.73;2.20;;;;;;;;;;5051079;28;20972;-72
2023/10/24 05:23:20;;;;;;;55.67;2.10;;;;;;;;;;5051525;28;20824;-72
2023/10/24 05:25:47;;;;;;;55.97;2.67;;;;;;;;;;5051380;28;20457;-72
2023/10/24 05:28:14;;;;;;;56.20;2.83;;;;;;;;;;5051367;28;20450;-72
2023/10/24 05:30:41;;;;;;;55.60;2.10;;;;;;;;;;5051330;28;20994;-72
2023/10/24 05:33:08;;;;;;;56.23;2.37;;;;;;;;;;5051428;28;20814;-72
2023/10/24 05:35:35;;;;;;;56.00;2.53;;;;;;;;;;5051136;28;20451;-72
2023/10/24 05:38:03;;;;;;;55.70;2.17;;;;;;;;;;5051342;28;20444;-72
2023/10/24 05:40:31;;;;;;;56.40;2.90;;;;;;;;;;5051117;28;20465;-74
2023/10/24 05:42:58;;;;;;;56.17;2.50;;;;;;;;;;5051177;28;20447;-71
2023/10/24 05:45:26;;;;;;;56.00;2.50;;;;;;;;;;5050837;28;20440;-72
2023/10/24 05:47:53;;;;;;;55.90;2.20;;;;;;;;;;5050940;28;20933;-72
2023/10/24 05:50:20;;;;;;;55.87;2.10;;;;;;;;;;5050722;28;20504;-71
2023/10/24 05:52:47;;;;;;;55.97;2.40;;;;;;;;;;5051282;28;20452;-72
2023/10/24 05:55:14;;;;;;;56.37;2.80;;;;;;;;;;5050441;28;20473;-72
2023/10/24 05:57:43;;;;;;;56.30;2.97;;;;;;;;;;5050817;28;20446;-72
2023/10/24 06:00:10;;;;;;;55.97;2.47;;;;;;;;;;5050577;28;20925;-72
2023/10/24 06:02:37;;;;;;;56.23;2.60;;;;;;;;;;5050527;28;20817;-70
2023/10/24 06:05:05;;;;;;;56.07;2.20;;;;;;;;;;5050591;28;20954;-72
2023/10/24 06:07:32;;;;;;;55.87;2.27;;;;;;;;;;5050973;28;20448;-72
2023/10/24 06:09:59;;;;;;;56.07;2.07;;;;;;;;;;5050588;28;20489;-72
2023/10/24 06:12:28;;;;;;;55.93;2.20;;;;;;;;;;5050790;28;20460;-72
2023/10/24 06:14:57;;;;;;;56.30;2.70;;;;;;;;;;5050481;28;20446;-72
2023/10/24 06:17:24;;;;;;;55.87;2.40;;;;;;;;;;5050421;28;20450;-71
2023/10/24 06:19:51;;;;;;;56.10;2.30;;;;;;;;;;5050733;28;20863;-71
2023/10/24 06:22:18;;;;;;;55.90;2.07;;;;;;;;;;5050680;28;20449;-71
2023/10/24 06:24:45;;;;;;;56.17;2.80;;;;;;;;;;5050373;28;20815;-71
2023/10/24 06:27:13;;;;;;;56.07;2.50;;;;;;;;;;5050533;28;20760;-71
2023/10/24 06:29:40;;;;;;;56.27;2.23;;;;;;;;;;5050229;28;20583;-71
2023/10/24 06:32:09;;;;;;;55.87;2.10;;;;;;;;;;5050290;28;20460;-72
2023/10/24 06:34:36;;;;;;;55.93;2.40;;;;;;;;;;5050410;28;20449;-71
2023/10/24 06:37:04;;;;;;;56.37;2.60;;;;;;;;;;5050628;28;20471;-72
2023/10/24 06:39:31;;;;;;;55.77;2.50;;;;;;;;;;5050594;28;20547;-71
2023/10/24 06:41:58;;;;;;;55.90;2.10;;;;;;;;;;5050339;28;20453;-72
2023/10/24 06:44:28;;;;;;;55.97;2.20;;;;;;;;;;5050317;28;20488;-71
2023/10/24 06:46:55;;;;;;;56.00;2.50;;;;;;;;;;5050528;28;20496;-72
2023/10/24 06:49:24;;;;;;;56.67;2.40;;;;;;;;;;5049364;28;20507;-72
2023/10/24 06:51:51;;;;;;;55.90;2.30;;;;;;;;;;5049944;28;20444;-71
2023/10/24 06:54:18;;;;;;;56.00;2.40;;;;;;;;;;5050157;28;20469;-70
2023/10/24 06:56:45;;;;;;;55.80;2.20;;;;;;;;;;5049837;28;20491;-71
2023/10/24 06:59:12;;;;;;;56.50;2.27;;;;;;;;;;5049948;28;20485;-70
2023/10/24 07:01:39;;;;;;;55.90;2.30;;;;;;;;;;5049747;28;20459;-71
2023/10/24 07:04:07;;;;;;;60.20;3.40;;;;;;;;;;5050097;28;20951;-71
2023/10/24 07:06:35;;;;;;;56.17;2.73;;;;;;;;;;5050098;28;20466;-71
2023/10/24 07:09:02;;;;;;;56.07;2.40;;;;;;;;;;5052972;28;20496;-71
2023/10/24 07:11:29;;;;;;;56.33;2.77;;;;;;;;;;5053316;28;20861;-71
2023/10/24 07:13:56;;;;;;;55.80;2.27;;;;;;;;;;5053409;28;20448;-71
2023/10/24 07:16:23;;;;;;;56.20;2.60;;;;;;;;;;5053647;28;20448;-70
2023/10/24 07:18:50;;;;;;;56.13;2.80;;;;;;;;;;5053490;28;20809;-70
2023/10/24 07:21:17;;;;;;;56.10;2.60;;;;;;;;;;5053592;28;20446;-70
2023/10/24 07:23:46;;;;;;;56.30;2.60;;;;;;;;;;5053235;28;20456;-70
2023/10/24 07:26:15;;;;;;;55.90;2.20;;;;;;;;;;5053328;28;20973;-70
2023/10/24 07:28:42;;;;;;;56.20;2.73;;;;;;;;;;5053127;28;20952;-70
2023/10/24 07:31:09;;;;;;;55.87;2.20;;;;;;;;;;5053312;28;20488;-71
2023/10/24 07:33:36;;;;;;;56.20;3.00;;;;;;;;;;5053445;28;20664;-71
2023/10/24 07:36:06;;;;;;;56.70;2.90;;;;;;;;;;5053194;28;20440;-70
2023/10/24 07:38:33;;;;;;;55.77;2.23;;;;;;;;;;5053537;28;20452;-70
2023/10/24 07:41:02;;;;;;;56.27;2.80;;;;;;;;;;5053140;28;20468;-70
2023/10/24 07:43:30;;;;;;;56.10;2.30;;;;;;;;;;5053109;28;20452;-71
2023/10/24 07:45:57;;;;;;;56.40;2.70;;;;;;;;;;5053183;28;20454;-71
2023/10/24 07:48:25;;;;;;;56.40;2.40;;;;;;;;;;5053131;28;20476;-71
2023/10/24 07:50:52;;;;;;;56.03;2.47;;;;;;;;;;5052557;28;20488;-71
2023/10/24 07:53:19;;;;;;;56.20;2.50;;;;;;;;;;5052741;28;20444;-70
2023/10/24 07:55:46;;;;;;;56.43;2.40;;;;;;;;;;5052753;28;20972;-70
2023/10/24 07:58:16;;;;;;;56.47;2.40;;;;;;;;;;5052950;28;20452;-71
2023/10/24 08:00:43;;;;;;;56.70;2.70;;;;;;;;;;5052436;28;20474;-70
2023/10/24 08:03:11;;;;;;;60.72;3.25;;;;;;;;;;5051776;28;20443;-71
2023/10/24 08:05:38;;;;;;;56.03;2.43;;;;;;;;;;5052539;28;20210;-70
2023/10/24 08:08:06;;;;;;;56.30;2.60;;;;;;;;;;5052792;28;20454;-71
2023/10/24 08:10:33;;;;;;;56.10;2.83;;;;;;;;;;5052673;28;20529;-71
2023/10/24 08:13:00;;;;;;;56.00;2.30;;;;;;;;;;5052424;28;20607;-71
2023/10/24 08:15:29;;;;;;;56.00;2.27;;;;;;;;;;5052522;28;20840;-71
2023/10/24 08:17:56;;;;;;;56.30;2.77;;;;;;;;;;5052037;28;20474;-71
2023/10/24 08:20:24;;;;;;;56.43;2.63;;;;;;;;;;5052598;28;20538;-71
2023/10/24 08:22:51;;;;;;;56.07;2.40;;;;;;;;;;5052382;28;20455;-71
2023/10/24 08:25:18;;;;;;;56.20;2.60;;;;;;;;;;5052307;28;20503;-71
2023/10/24 08:27:45;;;;;;;55.80;2.20;;;;;;;;;;5052285;28;21229;-71
2023/10/24 08:30:13;;;;;;;56.00;2.50;;;;;;;;;;5051955;28;20481;-70
2023/10/24 08:32:41;;;;;;;56.10;2.37;;;;;;;;;;5052594;28;20450;-70
2023/10/24 08:35:09;;;;;;;56.50;2.70;;;;;;;;;;5052058;28;20446;-71
2023/10/24 08:37:36;;;;;;;56.63;2.97;;;;;;;;;;5052318;28;20456;-71
2023/10/24 08:40:03;;;;;;;56.27;2.53;;;;;;;;;;5051768;28;20536;-71
2023/10/24 08:42:31;;;;;;;56.20;2.33;;;;;;;;;;5052117;28;20446;-71
2023/10/24 08:44:59;;;;;;;56.57;2.77;;;;;;;;;;5051653;28;20953;-70
2023/10/24 08:47:27;;;;;;;55.87;2.30;;;;;;;;;;5052287;28;20508;-71
2023/10/24 08:49:56;;;;;;;56.17;2.63;;;;;;;;;;5051682;28;20472;-71
2023/10/24 08:52:23;;;;;;;56.20;2.47;;;;;;;;;;5051711;28;20935;-70
2023/10/24 08:54:51;;;;;;;56.63;2.80;;;;;;;;;;5051895;28;20928;-70
2023/10/24 08:57:22;;;;;;;56.77;2.97;;;;;;;;;;5051257;28;20456;-70
2023/10/24 08:59:50;;;;;;;57.37;3.07;;;;;;;;;;5051251;28;20472;-69
2023/10/24 09:02:18;;;;;;;56.07;2.40;;;;;;;;;;5051563;28;20475;-71
2023/10/24 09:04:46;;;;;;;58.60;3.47;;;;;;;;;;5051576;28;20455;-71
2023/10/24 09:07:14;;;;;;;56.00;2.63;;;;;;;;;;5051672;28;20469;-71
2023/10/24 09:09:41;;;;;;;56.60;2.70;;;;;;;;;;5051412;28;20476;-71
2023/10/24 09:12:14;;;;;;;56.10;2.27;;;;;;;;;;5051147;28;20486;-71
2023/10/24 09:14:41;;;;;;;56.40;2.80;;;;;;;;;;5051532;28;20486;-71
2023/10/24 09:17:08;;;;;;;55.87;2.40;;;;;;;;;;5051465;28;20449;-71
2023/10/24 09:19:35;;;;;;;56.00;2.70;;;;;;;;;;5051330;28;20887;-71
2023/10/24 09:22:03;;;;;;;55.93;2.40;;;;;;;;;;5051027;28;20922;-71
2023/10/24 09:24:31;;;;;;;56.50;3.40;;;;;;;;;;5051158;28;20448;-71
2023/10/24 09:26:59;;;;;;;56.20;2.60;;;;;;;;;;5050845;28;20454;-71
2023/10/24 09:29:27;;;;;;;56.10;2.30;;;;;;;;;;5051086;28;20505;-71
2023/10/24 09:31:57;;;;;;;56.70;2.40;;;;;;;;;;5050501;28;20544;-71
2023/10/24 09:34:24;;;;;;;56.30;2.30;;;;;;;;;;5051211;28;20449;-71
2023/10/24 09:36:51;;;;;;;56.00;2.90;;;;;;;;;;5050935;28;20448;-71
2023/10/24 09:39:18;;;;;;;57.87;4.03;;;;;;;;;;5050806;28;20476;-71
2023/10/24 09:41:48;;;;;;;55.93;2.10;;;;;;;;;;5051001;28;20790;-71
2023/10/24 09:44:16;;;;;;;56.80;2.90;;;;;;;;;;5051178;28;20446;-70
2023/10/24 09:46:43;;;;;;;56.20;2.50;;;;;;;;;;5050936;28;20458;-71
2023/10/24 09:49:12;;;;;;;56.20;2.77;;;;;;;;;;5050736;28;20466;-71
2023/10/24 09:51:39;;;;;;;57.27;4.57;;;;;;;;;;5050653;28;20491;-72
2023/10/24 09:54:07;;;;;;;55.93;2.43;;;;;;;;;;5050492;28;20452;-71
2023/10/24 09:56:34;;;;;;;56.70;3.30;;;;;;;;;;5050773;28;20444;-71
2023/10/24 09:59:03;;;;;;;56.20;2.60;;;;;;;;;;5050720;28;20467;-71
2023/10/24 10:01:31;;;;;;;56.60;2.60;;;;;;;;;;5050583;28;20449;-71
2023/10/24 10:04:00;;;;;;;55.73;2.07;;;;;;;;;;5050378;28;20460;-71
2023/10/24 10:06:28;;;;;;;56.00;2.47;;;;;;;;;;5050544;28;20474;-71
2023/10/24 10:08:56;;;;;;;57.03;3.30;;;;;;;;;;5050772;28;20874;-71
2023/10/24 10:11:24;;;;;;;56.27;2.97;;;;;;;;;;5050486;28;20536;-71
2023/10/24 10:13:54;;;;;;;55.90;2.50;;;;;;;;;;5050331;28;20452;-71
2023/10/24 10:16:35;;;;;;;55.67;2.30;;;;;;;;;;5050477;28;20453;-71
2023/10/24 10:19:10;;;;;;;56.10;2.70;;;;;;;;;;5050649;28;20472;-71
2023/10/24 10:21:41;;;;;;;55.77;2.27;;;;;;;;;;5050619;28;20449;-71
2023/10/24 10:24:13;;;;;;;56.47;2.67;;;;;;;;;;5050257;28;20447;-71
2023/10/24 10:26:57;;;;;;;58.77;2.67;;;;;;;;;;5050300;28;20448;-72
2023/10/24 10:29:30;;;;;;;56.50;2.87;;;;;;;;;;5050019;28;20820;-71
2023/10/24 10:32:07;;;;;;;56.40;2.73;;;;;;;;;;5050373;28;20865;-71
2023/10/24 10:34:35;;;;;;;56.30;2.60;;;;;;;;;;5050322;28;20985;-71
2023/10/24 10:37:02;;;;;;;59.30;2.70;;;;;;;;;;5049873;28;20475;-71
2023/10/24 10:39:29;;;;;;;56.30;2.50;;;;;;;;;;5050148;28;20477;-71
2023/10/24 10:41:57;;;;;;;56.27;3.20;;;;;;;;;;5051540;28;20509;-71
2023/10/24 10:44:37;;;;;;;56.30;2.97;;;;;;;;;;5054335;28;20830;-71
2023/10/24 10:47:06;;;;;;;56.47;2.80;;;;;;;;;;5054282;28;20499;-71
2023/10/24 10:49:40;;;;;;;56.67;2.73;;;;;;;;;;5054046;28;20477;-71
2023/10/24 10:52:10;;;;;;;56.80;3.60;;;;;;;;;;5053759;28;20558;-71
2023/10/24 10:54:42;;;;;;;56.87;3.87;;;;;;;;;;5053986;28;20451;-71
2023/10/24 10:57:10;;;;;;;55.90;2.80;;;;;;;;;;5054304;28;20461;-71
2023/10/24 10:59:44;;;;;;;56.10;2.60;;;;;;;;;;5053992;28;20464;-71
2023/10/24 11:02:20;;;;;;;56.40;2.83;;;;;;;;;;5053709;28;20462;-71
2023/10/24 11:04:47;;;;;;;55.83;2.30;;;;;;;;;;5053670;28;20814;-71
2023/10/24 11:07:14;;;;;;;56.27;2.93;;;;;;;;;;5054072;28;20444;-71
2023/10/24 11:09:42;;;;;;;56.33;3.00;;;;;;;;;;5053905;28;20471;-71
2023/10/24 11:12:25;;;;;;;57.33;3.13;;;;;;;;;;5053545;28;20581;-70
2023/10/24 11:15:13;;;;;;;56.10;2.67;;;;;;;;;;5053573;28;20453;-71
2023/10/24 11:17:41;;;;;;;56.00;2.47;;;;;;;;;;5053805;28;20483;-71
2023/10/24 11:20:09;;;;;;;56.30;2.70;;;;;;;;;;5053053;28;20468;-71
2023/10/24 11:22:37;;;;;;;57.17;3.17;;;;;;;;;;5053364;28;20492;-72
2023/10/24 11:25:10;;;;;;;56.10;2.60;;;;;;;;;;5053423;28;20444;-71
2023/10/24 11:27:37;;;;;;;56.03;2.37;;;;;;;;;;5053639;28;20939;-71
2023/10/24 11:30:05;;;;;;;57.37;2.90;;;;;;;;;;5053697;28;20468;-71
2023/10/24 11:32:33;;;;;;;56.50;2.90;;;;;;;;;;5053732;28;20501;-71
2023/10/24 11:35:01;;;;;;;55.80;2.17;;;;;;;;;;5053607;28;20455;-71
2023/10/24 11:37:29;;;;;;;57.00;3.10;;;;;;;;;;5053615;28;20447;-71
2023/10/24 11:39:58;;;;;;;56.97;2.43;;;;;;;;;;5053238;28;20853;-72
2023/10/24 11:42:25;;;;;;;55.87;2.30;;;;;;;;;;5053455;28;20455;-72
2023/10/24 11:44:53;;;;;;;56.20;2.77;;;;;;;;;;5053498;28;20454;-72
2023/10/24 11:47:20;;;;;;;56.47;2.90;;;;;;;;;;5053381;28;21196;-72
2023/10/24 11:49:48;;;;;;;56.20;2.40;;;;;;;;;;5053293;28;20460;-72
2023/10/24 11:52:16;;;;;;;56.20;2.60;;;;;;;;;;5053054;28;20492;-71
2023/10/24 11:54:51;;;;;;;56.20;3.20;;;;;;;;;;5052299;28;20893;-71
2023/10/24 11:57:18;;;;;;;56.10;2.63;;;;;;;;;;5053326;28;20446;-71
2023/10/24 11:59:47;;;;;;;56.17;2.57;;;;;;;;;;5053186;28;20470;-71
2023/10/24 12:02:14;;;;;;;55.97;2.40;;;;;;;;;;5052780;28;20456;-71
2023/10/24 12:04:41;;;;;;;56.50;3.67;;;;;;;;;;5052808;28;20456;-71
2023/10/24 12:07:09;;;;;;;56.27;2.57;;;;;;;;;;5052793;28;20450;-71
2023/10/24 12:09:38;;;;;;;56.50;3.40;;;;;;;;;;5052951;28;20468;-71
2023/10/24 12:12:05;;;;;;;55.87;2.37;;;;;;;;;;5052705;28;20480;-71
2023/10/24 12:14:35;;;;;;;55.90;2.27;;;;;;;;;;5052841;28;20448;-71
2023/10/24 12:17:02;;;;;;;56.77;2.80;;;;;;;;;;5052660;28;20548;-71
2023/10/24 12:19:29;;;;;;;56.50;3.17;;;;;;;;;;5052679;28;20464;-71
2023/10/24 12:21:56;;;;;;;56.00;2.63;;;;;;;;;;5052399;28;20447;-71
2023/10/24 12:24:24;;;;;;;57.80;2.70;;;;;;;;;;5052510;28;20446;-71
2023/10/24 12:26:52;;;;;;;56.30;3.27;;;;;;;;;;5052531;28;20445;-71
2023/10/24 12:29:19;;;;;;;56.40;2.73;;;;;;;;;;5052356;28;20471;-71
2023/10/24 12:31:46;;;;;;;56.20;2.50;;;;;;;;;;5052264;28;20497;-71
2023/10/24 12:34:14;;;;;;;56.63;3.03;;;;;;;;;;5052012;28;20451;-71
2023/10/24 12:36:41;;;;;;;56.40;2.57;;;;;;;;;;5052532;28;20828;-71
2023/10/24 12:39:08;;;;;;;56.93;2.80;;;;;;;;;;5052357;28;20474;-71
2023/10/24 12:41:35;;;;;;;56.40;3.03;;;;;;;;;;5052263;28;20449;-71
2023/10/24 12:44:04;;;;;;;56.10;2.47;;;;;;;;;;5052135;28;20456;-71
2023/10/24 12:46:31;;;;;;;57.73;3.53;;;;;;;;;;5052052;28;20451;-71
2023/10/24 12:48:58;;;;;;;56.77;3.30;;;;;;;;;;5051426;28;20831;-71
2023/10/24 12:51:25;;;;;;;57.27;3.10;;;;;;;;;;5051910;28;20530;-71
2023/10/24 12:53:52;;;;;;;56.60;3.03;;;;;;;;;;5051994;28;20455;-71
2023/10/24 12:56:19;;;;;;;56.30;2.87;;;;;;;;;;5052075;28;20441;-71
2023/10/24 12:58:49;;;;;;;56.20;2.50;;;;;;;;;;5051831;28;20451;-71
2023/10/24 13:01:17;;;;;;;56.20;2.80;;;;;;;;;;5051669;28;20473;-71
2023/10/24 13:03:45;;;;;;;56.30;3.03;;;;;;;;;;5051809;28;20456;-71
2023/10/24 13:06:12;;;;;;;56.40;3.30;;;;;;;;;;5050596;28;20958;-71
2023/10/24 13:08:39;;;;;;;55.87;2.50;;;;;;;;;;5051703;28;20447;-71
2023/10/24 13:11:06;;;;;;;55.77;2.40;;;;;;;;;;5052066;28;20448;-71
2023/10/24 13:13:33;;;;;;;56.30;2.33;;;;;;;;;;5051729;28;20554;-71
2023/10/24 13:16:00;;;;;;;57.23;3.40;;;;;;;;;;5051757;28;20454;-71
2023/10/24 13:18:28;;;;;;;56.20;2.40;;;;;;;;;;5051775;28;20461;-71
2023/10/24 13:20:56;;;;;;;56.00;1.97;;;;;;;;;;5051204;28;20479;-71
2023/10/24 13:23:23;;;;;;;56.40;2.53;;;;;;;;;;5051382;28;20502;-71
2023/10/24 13:25:50;;;;;;;56.57;3.17;;;;;;;;;;5051373;28;20445;-71
2023/10/24 13:28:17;;;;;;;55.80;2.27;;;;;;;;;;5051163;28;20444;-71
2023/10/24 13:30:44;;;;;;;55.97;2.30;;;;;;;;;;5051044;28;20468;-71
2023/10/24 13:33:11;;;;;;;56.10;2.40;;;;;;;;;;5051244;28;20479;-71
2023/10/24 13:35:40;;;;;;;56.13;2.70;;;;;;;;;;5051182;28;20450;-71
2023/10/24 13:38:07;;;;;;;55.90;2.30;;;;;;;;;;5051122;28;20453;-71
2023/10/24 13:40:34;;;;;;;55.97;2.47;;;;;;;;;;5051151;28;20840;-71
2023/10/24 13:43:02;;;;;;;56.47;3.17;;;;;;;;;;5050984;28;20446;-71
2023/10/24 13:45:29;;;;;;;56.10;2.60;;;;;;;;;;5051259;28;20444;-71
2023/10/24 13:47:57;;;;;;;55.80;2.50;;;;;;;;;;5051389;28;20450;-71
2023/10/24 13:50:24;;;;;;;56.60;3.27;;;;;;;;;;5050918;28;20467;-71
2023/10/24 13:52:52;;;;;;;56.20;2.47;;;;;;;;;;5050711;28;20479;-71
2023/10/24 13:55:19;;;;;;;56.37;2.50;;;;;;;;;;5050513;28;20462;-71
2023/10/24 13:57:47;;;;;;;56.27;2.50;;;;;;;;;;5050732;28;20532;-71
2023/10/24 14:00:15;;;;;;;56.40;3.03;;;;;;;;;;5050506;28;20480;-71
2023/10/24 14:02:42;;;;;;;56.40;2.60;;;;;;;;;;5050995;28;20447;-71
2023/10/24 14:05:09;;;;;;;56.20;2.40;;;;;;;;;;5050626;28;20460;-71
2023/10/24 14:07:37;;;;;;;56.40;2.93;;;;;;;;;;5051126;28;20924;-71
2023/10/24 14:10:06;;;;;;;56.27;2.60;;;;;;;;;;5050487;28;20468;-71
2023/10/24 14:12:33;;;;;;;56.00;2.40;;;;;;;;;;5050874;28;20491;-71
2023/10/24 14:15:00;;;;;;;56.30;2.40;;;;;;;;;;5050643;28;20448;-71
2023/10/24 14:17:27;;;;;;;56.50;2.60;;;;;;;;;;5055678;28;20446;-71
2023/10/24 14:19:54;;;;;;;56.20;2.30;;;;;;;;;;5060293;28;20471;-71
2023/10/24 14:22:21;;;;;;;56.67;3.20;;;;;;;;;;5070738;28;20445;-71
2023/10/24 14:24:48;;;;;;;56.17;2.40;;;;;;;;;;5068652;28;20451;-71
2023/10/24 14:27:17;;;;;;;56.10;2.40;;;;;;;;;;5070379;28;20450;-71
2023/10/24 14:29:44;;;;;;;56.30;2.90;;;;;;;;;;5071581;28;20494;-71
2023/10/24 14:32:11;;;;;;;55.80;2.23;;;;;;;;;;5071329;28;20480;-71
2023/10/24 14:34:38;;;;;;;55.60;2.20;;;;;;;;;;5071659;28;20491;-71